createdAt,value
2022-12-24T00:03:40.088Z,12.31
2022-12-24T00:08:42.796Z,12.21
2022-12-24T00:13:45.376Z,12.31
2022-12-24T00:18:49.285Z,12.35
2022-12-24T00:23:51.836Z,12.22
2022-12-24T00:28:54.423Z,12.22
2022-12-24T00:33:58.691Z,12.20
2022-12-24T00:39:01.387Z,12.24
2022-12-24T00:44:06.524Z,12.15
2022-12-24T00:49:12.308Z,12.11
2022-12-24T00:54:15.664Z,11.94
2022-12-24T00:59:18.192Z,11.76
2022-12-24T01:04:39.627Z,11.80
2022-12-24T01:09:42.527Z,11.25
2022-12-24T01:14:45.114Z,11.79
2022-12-24T01:19:49.033Z,11.18
2022-12-24T01:24:52.018Z,11.27
2022-12-24T01:29:54.593Z,11.32
2022-12-24T01:34:59.735Z,11.51
2022-12-24T01:40:16.728Z,11.51
2022-12-24T01:45:42.825Z,11.56
2022-12-24T01:50:47.294Z,11.36
2022-12-24T01:55:51.190Z,11.58
2022-12-24T02:01:15.771Z,11.71
2022-12-24T02:06:21.626Z,11.49
2022-12-24T02:11:24.433Z,11.30
2022-12-24T02:16:39.872Z,11.54
2022-12-24T02:21:52.924Z,11.52
2022-12-24T02:27:12.416Z,11.43
2022-12-24T02:32:24.590Z,11.55
2022-12-24T02:37:32.274Z,11.42
2022-12-24T02:42:40.510Z,11.44
2022-12-24T02:47:46.368Z,11.49
2022-12-24T02:52:49.662Z,11.29
2022-12-24T02:58:08.009Z,11.13
2022-12-24T03:03:31.375Z,10.88
2022-12-24T03:08:45.194Z,10.94
2022-12-24T03:13:49.470Z,10.98
2022-12-24T03:18:56.080Z,11.08
2022-12-24T03:23:59.612Z,10.79
2022-12-24T03:29:06.410Z,10.91
2022-12-24T03:34:10.780Z,11.00
2022-12-24T03:39:13.437Z,11.01
2022-12-24T03:44:16.114Z,10.88
2022-12-24T03:49:20.009Z,10.81
2022-12-24T03:54:23.109Z,10.56
2022-12-24T03:59:25.691Z,10.75
2022-12-24T04:04:29.578Z,10.81
2022-12-24T04:09:32.783Z,10.71
2022-12-24T04:14:35.732Z,10.79
2022-12-24T04:19:39.617Z,10.93
2022-12-24T04:24:42.177Z,10.97
2022-12-24T04:29:44.862Z,11.10
2022-12-24T04:34:48.818Z,11.24
2022-12-24T04:39:51.366Z,11.36
2022-12-24T04:44:53.906Z,11.27
2022-12-24T04:49:58.247Z,11.46
2022-12-24T04:55:00.812Z,11.65
2022-12-24T05:00:03.657Z,11.57
2022-12-24T05:05:08.359Z,11.26
2022-12-24T05:10:11.872Z,11.18
2022-12-24T05:15:14.425Z,11.21
2022-12-24T05:20:19.009Z,11.29
2022-12-24T05:25:39.358Z,11.30
2022-12-24T05:30:41.930Z,11.24
2022-12-24T05:35:45.802Z,11.00
2022-12-24T05:40:48.596Z,10.98
2022-12-24T05:45:51.215Z,11.11
2022-12-24T05:50:55.965Z,11.31
2022-12-24T05:56:04.269Z,11.23
2022-12-24T06:01:07.684Z,11.24
2022-12-24T06:06:13.515Z,11.11
2022-12-24T06:11:18.263Z,11.11
2022-12-24T06:16:21.732Z,11.15
2022-12-24T06:21:25.964Z,11.03
2022-12-24T06:26:28.661Z,10.90
2022-12-24T06:31:31.309Z,11.05
2022-12-24T06:36:35.721Z,11.01
2022-12-24T06:41:38.312Z,11.13
2022-12-24T06:46:40.958Z,11.13
2022-12-24T06:51:44.934Z,11.07
2022-12-24T06:56:47.533Z,11.37
2022-12-24T07:01:50.192Z,11.24
2022-12-24T07:06:54.105Z,11.04
2022-12-24T07:11:56.676Z,10.94
2022-12-24T07:16:59.629Z,11.19
2022-12-24T07:22:03.696Z,11.00
2022-12-24T07:27:06.261Z,10.96
2022-12-24T07:32:09.283Z,11.04
2022-12-24T07:37:13.208Z,11.11
2022-12-24T07:42:15.745Z,11.00
2022-12-24T07:47:18.298Z,10.92
2022-12-24T07:52:22.234Z,10.87
2022-12-24T07:57:24.835Z,10.70
2022-12-24T08:02:27.618Z,10.80
2022-12-24T08:07:31.608Z,10.90
2022-12-24T08:12:34.143Z,10.94
2022-12-24T08:17:36.695Z,11.02
2022-12-24T08:22:40.597Z,11.01
2022-12-24T08:27:43.562Z,11.02
2022-12-24T08:32:46.178Z,11.04
2022-12-24T08:37:50.085Z,11.19
2022-12-24T08:42:53.035Z,11.12
2022-12-24T08:47:55.655Z,11.27
2022-12-24T08:53:00.056Z,11.23
2022-12-24T08:58:03.241Z,11.15
2022-12-24T09:03:05.859Z,10.83
2022-12-24T09:08:09.792Z,11.21
2022-12-24T09:13:12.552Z,11.29
2022-12-24T09:18:15.083Z,11.51
2022-12-24T09:23:19.183Z,11.28
2022-12-24T09:28:22.175Z,11.25
2022-12-24T09:33:24.865Z,11.52
2022-12-24T09:38:30.480Z,11.49
2022-12-24T09:43:35.004Z,11.65
2022-12-24T09:48:40.447Z,11.77
2022-12-24T09:53:52.238Z,11.82
2022-12-24T09:58:59.148Z,11.82
2022-12-24T10:04:04.954Z,11.73
2022-12-24T10:09:20.971Z,11.91
2022-12-24T10:14:33.756Z,11.86
2022-12-24T10:19:45.028Z,11.62
2022-12-24T10:24:55.783Z,11.78
2022-12-24T10:30:03.922Z,11.83
2022-12-24T10:35:16.947Z,11.77
2022-12-24T10:40:33.105Z,12.13
2022-12-24T10:45:40.650Z,11.99
2022-12-24T10:50:53.351Z,11.95
2022-12-24T10:56:06.224Z,11.77
2022-12-24T11:01:08.996Z,11.85
2022-12-24T11:06:13.830Z,11.83
2022-12-24T11:11:20.234Z,12.00
2022-12-24T11:16:28.692Z,11.92
2022-12-24T11:21:34.074Z,12.13
2022-12-24T11:26:37.980Z,12.08
2022-12-24T11:31:40.663Z,11.90
2022-12-24T11:36:43.257Z,11.89
2022-12-24T11:41:47.714Z,12.06
2022-12-24T11:46:52.857Z,12.12
2022-12-24T11:52:18.192Z,12.01
2022-12-24T11:57:25.339Z,12.18
2022-12-24T12:02:32.243Z,12.02
2022-12-24T12:07:37.595Z,12.17
2022-12-24T12:12:44.117Z,12.10
2022-12-24T12:17:52.791Z,11.97
2022-12-24T12:23:01.552Z,12.34
2022-12-24T12:28:14.454Z,12.23
2022-12-24T12:33:23.720Z,12.46
2022-12-24T12:38:29.348Z,12.31
2022-12-24T12:43:47.250Z,12.17
2022-12-24T12:49:04.730Z,11.96
2022-12-24T12:54:33.462Z,12.09
2022-12-24T12:59:42.023Z,12.05
2022-12-24T13:05:17.175Z,12.06
2022-12-24T13:10:45.916Z,12.25
2022-12-24T13:16:07.873Z,12.17
2022-12-24T13:21:17.788Z,12.34
2022-12-24T13:26:21.135Z,12.40
2022-12-24T13:31:33.784Z,12.46
2022-12-24T13:37:01.733Z,12.22
2022-12-24T13:42:04.402Z,12.11
2022-12-24T13:47:32.434Z,12.34
2022-12-24T13:52:42.175Z,12.59
2022-12-24T13:57:54.043Z,12.54
2022-12-24T14:03:03.175Z,12.70
2022-12-24T14:08:10.079Z,12.53
2022-12-24T14:13:46.200Z,12.59
2022-12-24T14:18:58.865Z,12.49
2022-12-24T14:24:05.019Z,12.16
2022-12-24T14:29:22.907Z,12.18
2022-12-24T14:34:28.667Z,11.97
2022-12-24T14:39:34.936Z,12.13
2022-12-24T14:44:47.145Z,12.14
2022-12-24T14:50:06.468Z,12.38
2022-12-24T14:55:37.639Z,12.39
2022-12-24T15:00:43.415Z,12.25
2022-12-24T15:05:53.302Z,12.06
2022-12-24T15:11:01.366Z,12.15
2022-12-24T15:16:05.982Z,12.17
2022-12-24T15:21:18.077Z,11.67
2022-12-24T15:26:27.563Z,11.50
2022-12-24T15:31:30.809Z,11.21
2022-12-24T15:36:36.417Z,11.23
2022-12-24T15:42:02.394Z,11.30
2022-12-24T15:47:08.671Z,11.35
2022-12-24T15:52:14.819Z,11.27
2022-12-24T15:57:24.536Z,11.14
2022-12-24T16:02:36.268Z,11.07
2022-12-24T16:08:06.164Z,10.97
2022-12-24T16:13:19.651Z,10.93
2022-12-24T16:18:27.672Z,10.63
2022-12-24T16:23:37.910Z,10.73
2022-12-24T16:28:40.536Z,10.62
2022-12-24T16:33:44.288Z,10.49
2022-12-24T16:39:16.995Z,10.51
2022-12-24T16:44:19.937Z,10.37
2022-12-24T16:49:24.227Z,10.33
2022-12-24T16:54:29.853Z,10.30
2022-12-24T16:59:33.081Z,10.14
2022-12-24T17:04:35.990Z,10.10
2022-12-24T17:09:39.881Z,10.06
2022-12-24T17:14:43.166Z,9.99
2022-12-24T17:19:45.910Z,9.99
2022-12-24T17:24:50.433Z,9.92
2022-12-24T17:29:53.341Z,9.82
2022-12-24T17:34:55.933Z,9.84
2022-12-24T17:39:59.827Z,9.75
2022-12-24T17:45:02.433Z,9.65
2022-12-24T17:50:05.897Z,9.64
2022-12-24T17:55:10.973Z,9.53
2022-12-24T18:00:15.680Z,9.47
2022-12-24T18:05:18.857Z,9.37
2022-12-24T18:10:22.759Z,9.38
2022-12-24T18:15:25.443Z,9.33
2022-12-24T18:20:28.044Z,9.21
2022-12-24T18:25:32.586Z,9.18
2022-12-24T18:30:35.188Z,9.22
2022-12-24T18:35:37.699Z,9.09
2022-12-24T18:40:41.571Z,9.12
2022-12-24T18:45:45.367Z,8.54
2022-12-24T18:50:55.466Z,8.96
2022-12-24T18:56:05.327Z,9.07
2022-12-24T19:01:12.504Z,9.12
2022-12-24T19:06:15.175Z,9.05
2022-12-24T19:11:19.490Z,9.09
2022-12-24T19:16:22.777Z,9.07
2022-12-24T19:21:25.731Z,8.89
2022-12-24T19:26:29.699Z,8.83
2022-12-24T19:31:33.108Z,8.91
2022-12-24T19:36:35.801Z,8.85
2022-12-24T19:41:39.700Z,8.87
2022-12-24T19:46:42.284Z,8.79
2022-12-24T19:51:45.125Z,8.76
2022-12-24T19:56:49.050Z,8.73
2022-12-24T20:01:53.627Z,8.90
2022-12-24T20:07:00.560Z,9.01
2022-12-24T20:12:04.979Z,9.00
2022-12-24T20:17:07.626Z,9.09
2022-12-24T20:22:10.249Z,9.22
2022-12-24T20:27:14.509Z,9.30
2022-12-24T20:32:17.571Z,9.35
2022-12-24T20:37:20.237Z,9.46
2022-12-24T20:42:24.378Z,9.57
2022-12-24T20:47:27.803Z,9.66
2022-12-24T20:52:31.452Z,9.72
2022-12-24T20:57:36.601Z,9.73
2022-12-24T21:02:39.856Z,9.72
2022-12-24T21:07:43.494Z,9.81
2022-12-24T21:12:56.684Z,9.89
2022-12-24T21:18:00.405Z,9.86
2022-12-24T21:23:03.431Z,10.05
2022-12-24T21:28:07.482Z,9.96
2022-12-24T21:33:10.037Z,9.95
2022-12-24T21:38:12.609Z,10.05
2022-12-24T21:43:16.971Z,9.85
2022-12-24T21:48:33.516Z,10.05
2022-12-24T21:53:54.124Z,9.97
2022-12-24T21:58:57.998Z,10.08
2022-12-24T22:04:00.574Z,10.09
2022-12-24T22:09:21.579Z,9.90
2022-12-24T22:14:25.621Z,10.05
2022-12-24T22:19:29.009Z,10.17
2022-12-24T22:24:31.546Z,10.36
2022-12-24T22:29:35.775Z,10.71
2022-12-24T22:34:38.685Z,10.49
2022-12-24T22:39:41.433Z,10.28
2022-12-24T22:44:45.341Z,10.16
2022-12-24T22:49:49.096Z,10.04
2022-12-24T22:54:51.674Z,9.99
2022-12-24T22:59:56.079Z,9.88
2022-12-24T23:04:59.032Z,9.84
2022-12-24T23:10:02.163Z,9.53
2022-12-24T23:15:12.308Z,9.20
2022-12-24T23:20:14.964Z,9.72
2022-12-24T23:25:18.548Z,9.50
2022-12-24T23:30:24.357Z,9.43
2022-12-24T23:35:27.512Z,8.76
2022-12-24T23:40:31.663Z,9.25
2022-12-24T23:45:39.047Z,8.75
2022-12-24T23:50:43.237Z,9.67
2022-12-24T23:55:46.897Z,9.41
